sensor_id;sensor_type;location;lat;lon;timestamp;pressure;altitude;pressure_sealevel;temperature;humidity
13456;BME280;6800;50.940;6.940;2022-07-15T00:00:08;101349.38;;;30.05;29.81
13456;BME280;6800;50.940;6.940;2022-07-15T00:04:10;101357.00;;;30.01;30.06
13456;BME280;6800;50.940;6.940;2022-07-15T00:08:11;101359.81;;;29.87;30.26
13456;BME280;6800;50.940;6.940;2022-07-15T00:12:12;101354.56;;;29.79;31.01
13456;BME280;6800;50.940;6.940;2022-07-15T00:16:12;101351.53;;;29.67;30.78
13456;BME280;6800;50.940;6.940;2022-07-15T00:20:14;101353.00;;;29.70;30.80
13456;BME280;6800;50.940;6.940;2022-07-15T00:24:15;101355.06;;;29.68;30.83
13456;BME280;6800;50.940;6.940;2022-07-15T00:28:16;101350.03;;;29.58;31.30
13456;BME280;6800;50.940;6.940;2022-07-15T00:32:17;101364.44;;;29.51;30.90
13456;BME280;6800;50.940;6.940;2022-07-15T00:36:18;101360.28;;;29.27;31.74
13456;BME280;6800;50.940;6.940;2022-07-15T00:40:19;101355.34;;;29.30;31.44
13456;BME280;6800;50.940;6.940;2022-07-15T00:44:19;101353.53;;;29.38;31.24
13456;BME280;6800;50.940;6.940;2022-07-15T00:48:20;101357.59;;;29.12;31.91
13456;BME280;6800;50.940;6.940;2022-07-15T00:52:22;101352.63;;;29.09;32.07
13456;BME280;6800;50.940;6.940;2022-07-15T00:56:25;101347.81;;;28.69;32.65
13456;BME280;6800;50.940;6.940;2022-07-15T01:00:26;101355.38;;;28.80;32.54
13456;BME280;6800;50.940;6.940;2022-07-15T01:04:27;101353.00;;;28.41;33.53
13456;BME280;6800;50.940;6.940;2022-07-15T01:08:28;101353.19;;;28.40;33.41
13456;BME280;6800;50.940;6.940;2022-07-15T01:12:28;101361.41;;;28.82;32.57
13456;BME280;6800;50.940;6.940;2022-07-15T01:16:29;101366.53;;;28.77;32.74
13456;BME280;6800;50.940;6.940;2022-07-15T01:20:30;101375.13;;;28.87;32.37
13456;BME280;6800;50.940;6.940;2022-07-15T01:24:30;101374.78;;;28.61;33.34
13456;BME280;6800;50.940;6.940;2022-07-15T01:28:31;101367.66;;;28.68;32.99
13456;BME280;6800;50.940;6.940;2022-07-15T01:32:31;101375.50;;;28.55;33.27
13456;BME280;6800;50.940;6.940;2022-07-15T01:36:32;101375.66;;;28.97;32.83
13456;BME280;6800;50.940;6.940;2022-07-15T01:40:32;101371.44;;;28.88;32.86
13456;BME280;6800;50.940;6.940;2022-07-15T01:44:32;101373.56;;;28.20;34.23
13456;BME280;6800;50.940;6.940;2022-07-15T01:48:33;101374.31;;;28.72;32.92
13456;BME280;6800;50.940;6.940;2022-07-15T01:52:52;101380.53;;;28.29;33.51
13456;BME280;6800;50.940;6.940;2022-07-15T01:56:53;101376.47;;;28.62;33.21
13456;BME280;6800;50.940;6.940;2022-07-15T02:00:54;101386.44;;;28.53;33.12
13456;BME280;6800;50.940;6.940;2022-07-15T02:04:54;101384.34;;;28.64;32.63
13456;BME280;6800;50.940;6.940;2022-07-15T02:08:54;101387.47;;;28.38;33.20
13456;BME280;6800;50.940;6.940;2022-07-15T02:12:56;101387.38;;;28.75;32.26
13456;BME280;6800;50.940;6.940;2022-07-15T02:16:56;101380.63;;;27.83;34.21
13456;BME280;6800;50.940;6.940;2022-07-15T02:20:57;101385.78;;;28.81;32.61
13456;BME280;6800;50.940;6.940;2022-07-15T02:24:57;101384.59;;;28.83;31.90
13456;BME280;6800;50.940;6.940;2022-07-15T02:28:58;101381.63;;;27.82;33.66
13456;BME280;6800;50.940;6.940;2022-07-15T02:32:59;101379.03;;;27.89;33.75
13456;BME280;6800;50.940;6.940;2022-07-15T02:37:00;101370.25;;;28.32;32.53
13456;BME280;6800;50.940;6.940;2022-07-15T02:41:00;101370.97;;;27.97;33.16
13456;BME280;6800;50.940;6.940;2022-07-15T02:45:01;101369.94;;;28.42;31.85
13456;BME280;6800;50.940;6.940;2022-07-15T02:49:01;101382.47;;;28.06;32.50
13456;BME280;6800;50.940;6.940;2022-07-15T02:53:02;101376.91;;;28.51;32.11
13456;BME280;6800;50.940;6.940;2022-07-15T02:57:03;101377.75;;;28.37;32.14
13456;BME280;6800;50.940;6.940;2022-07-15T03:01:04;101381.81;;;28.33;32.25
13456;BME280;6800;50.940;6.940;2022-07-15T03:05:05;101389.31;;;28.52;31.97
13456;BME280;6800;50.940;6.940;2022-07-15T03:09:05;101392.84;;;28.38;31.94
13456;BME280;6800;50.940;6.940;2022-07-15T03:13:06;101397.94;;;28.18;32.45
13456;BME280;6800;50.940;6.940;2022-07-15T03:17:08;101404.75;;;28.06;33.07
13456;BME280;6800;50.940;6.940;2022-07-15T03:21:08;101407.53;;;28.13;32.39
13456;BME280;6800;50.940;6.940;2022-07-15T03:25:10;101412.03;;;28.35;32.25
13456;BME280;6800;50.940;6.940;2022-07-15T03:29:10;101417.50;;;28.56;32.33
13456;BME280;6800;50.940;6.940;2022-07-15T03:33:15;101426.66;;;27.72;33.23
13456;BME280;6800;50.940;6.940;2022-07-15T03:37:16;101428.69;;;28.45;32.28
13456;BME280;6800;50.940;6.940;2022-07-15T03:41:17;101432.59;;;28.42;32.55
13456;BME280;6800;50.940;6.940;2022-07-15T03:45:17;101428.38;;;28.63;31.94
13456;BME280;6800;50.940;6.940;2022-07-15T03:49:18;101439.69;;;28.58;32.37
13456;BME280;6800;50.940;6.940;2022-07-15T03:53:18;101442.16;;;28.60;32.57
13456;BME280;6800;50.940;6.940;2022-07-15T03:57:18;101447.00;;;28.64;32.51
13456;BME280;6800;50.940;6.940;2022-07-15T04:01:20;101453.53;;;28.91;32.13
13456;BME280;6800;50.940;6.940;2022-07-15T04:05:21;101452.59;;;29.13;32.38
13456;BME280;6800;50.940;6.940;2022-07-15T04:09:21;101464.06;;;29.36;31.70
13456;BME280;6800;50.940;6.940;2022-07-15T04:13:21;101467.16;;;29.18;32.64
13456;BME280;6800;50.940;6.940;2022-07-15T04:17:22;101461.72;;;28.83;33.31
13456;BME280;6800;50.940;6.940;2022-07-15T04:21:22;101467.38;;;29.17;32.93
13456;BME280;6800;50.940;6.940;2022-07-15T04:25:23;101475.06;;;28.76;33.80
13456;BME280;6800;50.940;6.940;2022-07-15T04:29:23;101470.63;;;28.98;32.95
13456;BME280;6800;50.940;6.940;2022-07-15T04:33:23;101471.72;;;28.89;33.52
13456;BME280;6800;50.940;6.940;2022-07-15T04:37:23;101474.34;;;28.97;33.28
13456;BME280;6800;50.940;6.940;2022-07-15T04:41:24;101476.28;;;28.59;34.38
13456;BME280;6800;50.940;6.940;2022-07-15T04:45:27;101483.97;;;28.91;33.33
13456;BME280;6800;50.940;6.940;2022-07-15T04:49:29;101488.44;;;28.84;33.48
13456;BME280;6800;50.940;6.940;2022-07-15T04:53:48;101493.16;;;29.26;33.08
13456;BME280;6800;50.940;6.940;2022-07-15T04:57:49;101491.91;;;29.43;32.28
13456;BME280;6800;50.940;6.940;2022-07-15T05:01:49;101486.66;;;29.35;32.51
13456;BME280;6800;50.940;6.940;2022-07-15T05:05:49;101489.34;;;29.35;32.93
13456;BME280;6800;50.940;6.940;2022-07-15T05:09:50;101496.22;;;29.73;32.36
13456;BME280;6800;50.940;6.940;2022-07-15T05:13:50;101501.47;;;29.81;31.90
13456;BME280;6800;50.940;6.940;2022-07-15T05:17:50;101504.97;;;29.82;31.88
13456;BME280;6800;50.940;6.940;2022-07-15T05:21:51;101502.00;;;30.19;31.81
13456;BME280;6800;50.940;6.940;2022-07-15T05:25:51;101498.03;;;30.36;31.37
13456;BME280;6800;50.940;6.940;2022-07-15T05:29:51;101501.47;;;30.02;31.31
13456;BME280;6800;50.940;6.940;2022-07-15T05:33:51;101504.50;;;30.21;31.57
13456;BME280;6800;50.940;6.940;2022-07-15T05:37:52;101494.06;;;30.32;31.13
13456;BME280;6800;50.940;6.940;2022-07-15T05:41:53;101507.44;;;30.47;30.58
13456;BME280;6800;50.940;6.940;2022-07-15T05:45:54;101510.00;;;30.55;31.28
13456;BME280;6800;50.940;6.940;2022-07-15T05:49:54;101503.34;;;30.85;30.67
13456;BME280;6800;50.940;6.940;2022-07-15T05:53:55;101500.34;;;31.01;30.28
13456;BME280;6800;50.940;6.940;2022-07-15T05:57:56;101502.84;;;31.50;29.27
13456;BME280;6800;50.940;6.940;2022-07-15T06:01:58;101502.34;;;32.33;28.63
13456;BME280;6800;50.940;6.940;2022-07-15T06:05:59;101495.63;;;32.81;27.76
13456;BME280;6800;50.940;6.940;2022-07-15T06:09:59;101510.06;;;32.43;27.44
13456;BME280;6800;50.940;6.940;2022-07-15T06:14:00;101508.59;;;32.14;28.36
13456;BME280;6800;50.940;6.940;2022-07-15T06:18:01;101511.72;;;32.70;27.47
13456;BME280;6800;50.940;6.940;2022-07-15T06:22:01;101507.50;;;32.80;27.07
13456;BME280;6800;50.940;6.940;2022-07-15T06:26:03;101510.47;;;32.53;27.21
13456;BME280;6800;50.940;6.940;2022-07-15T06:30:04;101508.63;;;34.06;25.18
13456;BME280;6800;50.940;6.940;2022-07-15T06:34:04;101506.91;;;34.61;24.56
13456;BME280;6800;50.940;6.940;2022-07-15T06:38:04;101508.78;;;34.35;24.83
13456;BME280;6800;50.940;6.940;2022-07-15T06:42:05;101509.19;;;35.66;23.74
13456;BME280;6800;50.940;6.940;2022-07-15T06:46:06;101505.47;;;36.66;22.22
13456;BME280;6800;50.940;6.940;2022-07-15T06:50:07;101508.28;;;36.36;21.59
13456;BME280;6800;50.940;6.940;2022-07-15T06:54:07;101506.59;;;34.50;24.33
13456;BME280;6800;50.940;6.940;2022-07-15T06:58:08;101504.88;;;33.31;25.70
13456;BME280;6800;50.940;6.940;2022-07-15T07:02:08;101515.03;;;32.32;26.58
13456;BME280;6800;50.940;6.940;2022-07-15T07:06:09;101507.97;;;31.32;28.34
13456;BME280;6800;50.940;6.940;2022-07-15T07:10:09;101517.75;;;32.00;27.74
13456;BME280;6800;50.940;6.940;2022-07-15T07:14:10;101521.41;;;31.86;27.19
13456;BME280;6800;50.940;6.940;2022-07-15T07:18:11;101518.94;;;31.30;27.86
13456;BME280;6800;50.940;6.940;2022-07-15T07:22:12;101515.16;;;33.03;25.54
13456;BME280;6800;50.940;6.940;2022-07-15T07:26:14;101519.91;;;34.95;23.20
13456;BME280;6800;50.940;6.940;2022-07-15T07:30:15;101521.84;;;37.17;20.95
13456;BME280;6800;50.940;6.940;2022-07-15T07:34:16;101504.09;;;37.99;19.91
13456;BME280;6800;50.940;6.940;2022-07-15T07:38:19;101510.00;;;34.39;22.46
13456;BME280;6800;50.940;6.940;2022-07-15T07:42:20;101510.34;;;35.40;20.85
13456;BME280;6800;50.940;6.940;2022-07-15T07:46:20;101499.56;;;35.52;20.91
13456;BME280;6800;50.940;6.940;2022-07-15T07:50:21;101515.63;;;35.05;21.45
13456;BME280;6800;50.940;6.940;2022-07-15T07:54:22;101519.53;;;34.24;21.65
13456;BME280;6800;50.940;6.940;2022-07-15T07:58:22;101509.13;;;33.90;22.34
13456;BME280;6800;50.940;6.940;2022-07-15T08:02:22;101516.44;;;34.20;21.84
13456;BME280;6800;50.940;6.940;2022-07-15T08:06:24;101502.63;;;33.59;22.62
13456;BME280;6800;50.940;6.940;2022-07-15T08:10:24;101505.19;;;34.41;21.67
13456;BME280;6800;50.940;6.940;2022-07-15T08:14:25;101508.38;;;35.17;21.02
13456;BME280;6800;50.940;6.940;2022-07-15T08:18:25;101505.97;;;37.26;18.48
13456;BME280;6800;50.940;6.940;2022-07-15T08:22:26;101502.97;;;37.84;16.45
13456;BME280;6800;50.940;6.940;2022-07-15T08:26:26;101500.47;;;38.82;15.50
13456;BME280;6800;50.940;6.940;2022-07-15T08:30:29;101499.16;;;37.68;16.82
13456;BME280;6800;50.940;6.940;2022-07-15T08:34:29;101499.81;;;36.56;16.77
13456;BME280;6800;50.940;6.940;2022-07-15T08:38:30;101502.34;;;36.16;17.39
13456;BME280;6800;50.940;6.940;2022-07-15T08:42:30;101510.06;;;36.31;16.91
13456;BME280;6800;50.940;6.940;2022-07-15T08:46:32;101504.41;;;35.79;17.70
13456;BME280;6800;50.940;6.940;2022-07-15T08:50:34;101499.34;;;35.05;18.58
13456;BME280;6800;50.940;6.940;2022-07-15T08:54:34;101510.44;;;35.33;17.69
13456;BME280;6800;50.940;6.940;2022-07-15T08:58:36;101511.34;;;34.73;18.92
13456;BME280;6800;50.940;6.940;2022-07-15T09:02:37;101515.72;;;34.31;18.80
13456;BME280;6800;50.940;6.940;2022-07-15T09:06:40;101507.88;;;35.39;18.10
13456;BME280;6800;50.940;6.940;2022-07-15T09:14:51;101509.13;;;37.63;16.71
13456;BME280;6800;50.940;6.940;2022-07-15T09:18:52;101512.59;;;38.53;16.27
13456;BME280;6800;50.940;6.940;2022-07-15T09:22:55;101508.97;;;37.69;16.38
13456;BME280;6800;50.940;6.940;2022-07-15T09:26:56;101517.59;;;36.05;18.11
13456;BME280;6800;50.940;6.940;2022-07-15T09:30:56;101522.72;;;36.37;17.53
13456;BME280;6800;50.940;6.940;2022-07-15T09:35:16;101502.31;;;37.77;16.22
13456;BME280;6800;50.940;6.940;2022-07-15T09:39:53;101513.91;;;36.00;17.15
13456;BME280;6800;50.940;6.940;2022-07-15T09:48:09;101515.72;;;37.10;17.89
13456;BME280;6800;50.940;6.940;2022-07-15T09:52:13;101514.69;;;37.39;17.63
13456;BME280;6800;50.940;6.940;2022-07-15T09:56:17;101514.00;;;38.22;16.79
13456;BME280;6800;50.940;6.940;2022-07-15T10:00:22;101504.16;;;39.36;15.74
13456;BME280;6800;50.940;6.940;2022-07-15T10:04:25;101512.47;;;40.31;14.72
13456;BME280;6800;50.940;6.940;2022-07-15T10:08:26;101504.25;;;41.35;13.85
13456;BME280;6800;50.940;6.940;2022-07-15T10:12:31;101511.19;;;40.43;14.47
13456;BME280;6800;50.940;6.940;2022-07-15T10:21:06;101503.47;;;34.22;19.77
13456;BME280;6800;50.940;6.940;2022-07-15T10:29:29;101491.97;;;38.62;15.80
13456;BME280;6800;50.940;6.940;2022-07-15T10:33:30;101498.84;;;38.48;16.26
13456;BME280;6800;50.940;6.940;2022-07-15T10:37:30;101497.22;;;38.47;15.98
13456;BME280;6800;50.940;6.940;2022-07-15T10:50:39;101491.28;;;40.21;13.75
13456;BME280;6800;50.940;6.940;2022-07-15T10:59:09;101468.34;;;41.61;12.37
13456;BME280;6800;50.940;6.940;2022-07-15T11:03:11;101470.38;;;40.42;14.15
13456;BME280;6800;50.940;6.940;2022-07-15T11:15:20;101470.38;;;40.42;13.07
13456;BME280;6800;50.940;6.940;2022-07-15T11:19:23;101458.88;;;42.78;12.26
13456;BME280;6800;50.940;6.940;2022-07-15T11:23:30;101454.03;;;42.55;12.04
13456;BME280;6800;50.940;6.940;2022-07-15T11:27:31;101452.34;;;40.51;13.46
13456;BME280;6800;50.940;6.940;2022-07-15T11:31:39;101453.59;;;39.97;13.68
13456;BME280;6800;50.940;6.940;2022-07-15T11:44:10;101433.25;;;41.83;12.22
13456;BME280;6800;50.940;6.940;2022-07-15T11:48:36;101427.19;;;41.41;12.37
13456;BME280;6800;50.940;6.940;2022-07-15T11:52:37;101431.31;;;39.83;14.11
13456;BME280;6800;50.940;6.940;2022-07-15T11:56:37;101428.91;;;37.30;15.57
13456;BME280;6800;50.940;6.940;2022-07-15T12:00:37;101420.97;;;37.29;15.69
13456;BME280;6800;50.940;6.940;2022-07-15T12:04:39;101415.50;;;37.57;15.57
13456;BME280;6800;50.940;6.940;2022-07-15T12:08:46;101414.25;;;38.31;14.88
13456;BME280;6800;50.940;6.940;2022-07-15T12:12:55;101414.09;;;37.71;15.58
13456;BME280;6800;50.940;6.940;2022-07-15T12:16:57;101412.94;;;39.47;14.31
13456;BME280;6800;50.940;6.940;2022-07-15T12:20:57;101416.69;;;39.67;13.68
13456;BME280;6800;50.940;6.940;2022-07-15T12:24:58;101420.56;;;38.15;15.33
13456;BME280;6800;50.940;6.940;2022-07-15T12:29:01;101411.41;;;38.04;15.53
13456;BME280;6800;50.940;6.940;2022-07-15T12:33:21;101421.63;;;37.64;15.65
13456;BME280;6800;50.940;6.940;2022-07-15T12:37:47;101426.63;;;36.25;16.50
13456;BME280;6800;50.940;6.940;2022-07-15T12:42:02;101422.13;;;37.33;16.01
13456;BME280;6800;50.940;6.940;2022-07-15T12:46:04;101425.78;;;35.89;17.72
13456;BME280;6800;50.940;6.940;2022-07-15T12:50:05;101423.00;;;37.50;16.32
13456;BME280;6800;50.940;6.940;2022-07-15T12:54:05;101421.44;;;36.46;16.45
13456;BME280;6800;50.940;6.940;2022-07-15T12:58:08;101423.00;;;36.19;17.13
13456;BME280;6800;50.940;6.940;2022-07-15T13:02:09;101422.69;;;35.74;17.96
13456;BME280;6800;50.940;6.940;2022-07-15T13:06:10;101436.22;;;35.92;17.19
13456;BME280;6800;50.940;6.940;2022-07-15T13:10:14;101424.59;;;35.44;18.32
13456;BME280;6800;50.940;6.940;2022-07-15T13:14:15;101415.66;;;36.43;16.91
13456;BME280;6800;50.940;6.940;2022-07-15T13:18:15;101427.22;;;36.38;17.28
13456;BME280;6800;50.940;6.940;2022-07-15T13:22:16;101412.56;;;37.02;16.27
13456;BME280;6800;50.940;6.940;2022-07-15T13:26:16;101413.59;;;35.80;17.48
13456;BME280;6800;50.940;6.940;2022-07-15T13:30:17;101411.69;;;35.28;17.68
13456;BME280;6800;50.940;6.940;2022-07-15T13:34:17;101402.03;;;35.73;17.48
13456;BME280;6800;50.940;6.940;2022-07-15T13:38:17;101394.72;;;33.56;19.77
13456;BME280;6800;50.940;6.940;2022-07-15T13:42:18;101397.28;;;34.01;19.71
13456;BME280;6800;50.940;6.940;2022-07-15T13:46:18;101398.03;;;35.16;19.30
13456;BME280;6800;50.940;6.940;2022-07-15T13:50:19;101399.78;;;34.63;19.09
13456;BME280;6800;50.940;6.940;2022-07-15T13:54:38;101391.16;;;35.02;18.83
13456;BME280;6800;50.940;6.940;2022-07-15T13:58:38;101392.41;;;35.29;18.36
13456;BME280;6800;50.940;6.940;2022-07-15T14:02:39;101388.09;;;35.10;18.06
13456;BME280;6800;50.940;6.940;2022-07-15T14:06:39;101387.69;;;35.25;18.30
13456;BME280;6800;50.940;6.940;2022-07-15T14:10:40;101395.38;;;35.28;18.60
13456;BME280;6800;50.940;6.940;2022-07-15T14:14:41;101388.06;;;35.28;17.90
13456;BME280;6800;50.940;6.940;2022-07-15T14:18:41;101388.00;;;35.17;17.60
13456;BME280;6800;50.940;6.940;2022-07-15T14:22:45;101398.13;;;35.40;17.93
13456;BME280;6800;50.940;6.940;2022-07-15T14:26:46;101391.84;;;35.92;17.28
13456;BME280;6800;50.940;6.940;2022-07-15T14:30:46;101390.69;;;35.88;18.18
13456;BME280;6800;50.940;6.940;2022-07-15T14:34:46;101390.19;;;33.44;20.58
13456;BME280;6800;50.940;6.940;2022-07-15T14:38:47;101384.94;;;35.13;18.67
13456;BME280;6800;50.940;6.940;2022-07-15T14:42:47;101390.09;;;35.97;18.01
13456;BME280;6800;50.940;6.940;2022-07-15T14:46:48;101387.38;;;35.45;18.14
13456;BME280;6800;50.940;6.940;2022-07-15T14:50:48;101381.16;;;35.14;18.87
13456;BME280;6800;50.940;6.940;2022-07-15T14:54:48;101379.22;;;35.97;17.93
13456;BME280;6800;50.940;6.940;2022-07-15T14:58:49;101379.47;;;35.96;17.73
13456;BME280;6800;50.940;6.940;2022-07-15T15:02:49;101379.66;;;35.18;18.15
13456;BME280;6800;50.940;6.940;2022-07-15T15:06:51;101374.22;;;35.60;17.95
13456;BME280;6800;50.940;6.940;2022-07-15T15:10:51;101373.22;;;34.47;18.97
13456;BME280;6800;50.940;6.940;2022-07-15T15:14:52;101367.97;;;35.29;17.90
13456;BME280;6800;50.940;6.940;2022-07-15T15:18:52;101363.88;;;32.11;21.05
13456;BME280;6800;50.940;6.940;2022-07-15T15:22:53;101368.16;;;32.52;21.12
13456;BME280;6800;50.940;6.940;2022-07-15T15:26:53;101374.53;;;33.77;19.84
13456;BME280;6800;50.940;6.940;2022-07-15T15:30:54;101369.75;;;34.76;18.26
13456;BME280;6800;50.940;6.940;2022-07-15T15:34:55;101372.91;;;35.21;18.04
13456;BME280;6800;50.940;6.940;2022-07-15T15:38:56;101368.97;;;35.05;18.56
13456;BME280;6800;50.940;6.940;2022-07-15T15:42:56;101365.16;;;35.24;17.92
13456;BME280;6800;50.940;6.940;2022-07-15T15:46:57;101361.00;;;35.22;18.44
13456;BME280;6800;50.940;6.940;2022-07-15T15:50:57;101362.09;;;35.33;18.50
13456;BME280;6800;50.940;6.940;2022-07-15T15:55:01;101351.16;;;33.83;19.91
13456;BME280;6800;50.940;6.940;2022-07-15T15:59:01;101355.13;;;34.77;18.64
13456;BME280;6800;50.940;6.940;2022-07-15T16:03:02;101347.94;;;34.83;18.72
13456;BME280;6800;50.940;6.940;2022-07-15T16:07:03;101354.28;;;34.77;19.12
13456;BME280;6800;50.940;6.940;2022-07-15T16:11:03;101338.94;;;34.71;18.68
13456;BME280;6800;50.940;6.940;2022-07-15T16:15:04;101332.97;;;34.80;18.64
13456;BME280;6800;50.940;6.940;2022-07-15T16:19:05;101336.47;;;34.99;18.37
13456;BME280;6800;50.940;6.940;2022-07-15T16:23:05;101335.25;;;34.95;18.23
13456;BME280;6800;50.940;6.940;2022-07-15T16:27:06;101334.50;;;34.58;18.84
13456;BME280;6800;50.940;6.940;2022-07-15T16:31:06;101326.03;;;34.30;19.19
13456;BME280;6800;50.940;6.940;2022-07-15T16:35:07;101318.97;;;34.65;18.92
13456;BME280;6800;50.940;6.940;2022-07-15T16:39:07;101323.34;;;34.48;19.07
13456;BME280;6800;50.940;6.940;2022-07-15T16:43:08;101320.09;;;34.58;19.00
13456;BME280;6800;50.940;6.940;2022-07-15T16:47:08;101322.81;;;34.03;18.70
13456;BME280;6800;50.940;6.940;2022-07-15T16:51:09;101319.19;;;34.27;17.94
13456;BME280;6800;50.940;6.940;2022-07-15T16:55:12;101315.19;;;34.48;17.68
13456;BME280;6800;50.940;6.940;2022-07-15T16:59:12;101315.34;;;34.17;18.05
13456;BME280;6800;50.940;6.940;2022-07-15T17:03:13;101307.72;;;34.62;18.13
13456;BME280;6800;50.940;6.940;2022-07-15T17:07:13;101308.91;;;34.84;17.98
13456;BME280;6800;50.940;6.940;2022-07-15T17:11:14;101312.19;;;34.56;18.09
13456;BME280;6800;50.940;6.940;2022-07-15T17:15:16;101309.66;;;34.73;17.58
13456;BME280;6800;50.940;6.940;2022-07-15T17:19:16;101303.03;;;34.21;17.99
13456;BME280;6800;50.940;6.940;2022-07-15T17:23:16;101313.81;;;34.75;17.97
13456;BME280;6800;50.940;6.940;2022-07-15T17:27:17;101305.94;;;34.55;18.55
13456;BME280;6800;50.940;6.940;2022-07-15T17:31:17;101304.75;;;34.81;18.10
13456;BME280;6800;50.940;6.940;2022-07-15T17:35:17;101308.56;;;34.62;17.98
13456;BME280;6800;50.940;6.940;2022-07-15T17:39:18;101305.25;;;34.42;18.53
13456;BME280;6800;50.940;6.940;2022-07-15T17:43:18;101302.84;;;34.34;18.17
13456;BME280;6800;50.940;6.940;2022-07-15T17:47:18;101301.44;;;34.31;18.32
13456;BME280;6800;50.940;6.940;2022-07-15T17:51:19;101312.94;;;34.09;18.66
13456;BME280;6800;50.940;6.940;2022-07-15T17:55:19;101306.09;;;34.24;18.87
13456;BME280;6800;50.940;6.940;2022-07-15T17:59:20;101309.41;;;34.26;18.29
13456;BME280;6800;50.940;6.940;2022-07-15T18:03:21;101306.25;;;34.11;18.68
13456;BME280;6800;50.940;6.940;2022-07-15T18:07:21;101306.47;;;34.10;18.65
13456;BME280;6800;50.940;6.940;2022-07-15T18:11:21;101306.47;;;33.85;19.00
13456;BME280;6800;50.940;6.940;2022-07-15T18:15:22;101307.19;;;33.99;18.94
13456;BME280;6800;50.940;6.940;2022-07-15T18:19:22;101303.94;;;33.72;19.43
13456;BME280;6800;50.940;6.940;2022-07-15T18:23:22;101315.19;;;33.69;18.87
13456;BME280;6800;50.940;6.940;2022-07-15T18:27:23;101302.97;;;33.85;19.74
13456;BME280;6800;50.940;6.940;2022-07-15T18:31:23;101307.13;;;33.62;19.60
13456;BME280;6800;50.940;6.940;2022-07-15T18:35:24;101309.28;;;33.54;19.76
13456;BME280;6800;50.940;6.940;2022-07-15T18:39:24;101301.41;;;33.52;19.40
13456;BME280;6800;50.940;6.940;2022-07-15T18:43:26;101307.13;;;33.38;19.52
13456;BME280;6800;50.940;6.940;2022-07-15T18:47:26;101300.25;;;33.35;19.86
13456;BME280;6800;50.940;6.940;2022-07-15T18:51:27;101299.81;;;33.38;19.94
13456;BME280;6800;50.940;6.940;2022-07-15T18:55:27;101299.00;;;33.38;20.01
13456;BME280;6800;50.940;6.940;2022-07-15T18:59:27;101294.28;;;33.27;20.19
13456;BME280;6800;50.940;6.940;2022-07-15T19:03:28;101297.41;;;32.92;20.45
13456;BME280;6800;50.940;6.940;2022-07-15T19:07:28;101303.34;;;33.14;20.44
13456;BME280;6800;50.940;6.940;2022-07-15T19:11:30;101299.31;;;32.85;20.57
13456;BME280;6800;50.940;6.940;2022-07-15T19:15:31;101297.19;;;33.00;20.59
13456;BME280;6800;50.940;6.940;2022-07-15T19:19:31;101309.03;;;33.06;20.34
13456;BME280;6800;50.940;6.940;2022-07-15T19:23:31;101311.88;;;32.73;20.79
13456;BME280;6800;50.940;6.940;2022-07-15T19:27:32;101301.50;;;32.70;20.91
13456;BME280;6800;50.940;6.940;2022-07-15T19:31:33;101312.16;;;32.65;21.13
13456;BME280;6800;50.940;6.940;2022-07-15T19:35:34;101311.78;;;32.55;21.43
13456;BME280;6800;50.940;6.940;2022-07-15T19:39:34;101318.03;;;32.49;20.87
13456;BME280;6800;50.940;6.940;2022-07-15T19:43:35;101312.41;;;32.44;21.38
13456;BME280;6800;50.940;6.940;2022-07-15T19:47:35;101322.00;;;32.47;21.29
13456;BME280;6800;50.940;6.940;2022-07-15T19:51:35;101325.31;;;32.42;21.61
13456;BME280;6800;50.940;6.940;2022-07-15T19:55:36;101323.06;;;32.32;21.92
13456;BME280;6800;50.940;6.940;2022-07-15T19:59:36;101329.94;;;32.28;22.09
13456;BME280;6800;50.940;6.940;2022-07-15T20:03:55;101332.03;;;32.26;21.78
13456;BME280;6800;50.940;6.940;2022-07-15T20:07:56;101337.41;;;32.33;22.12
13456;BME280;6800;50.940;6.940;2022-07-15T20:11:56;101343.94;;;32.12;22.29
13456;BME280;6800;50.940;6.940;2022-07-15T20:15:56;101338.66;;;32.37;22.08
13456;BME280;6800;50.940;6.940;2022-07-15T20:19:58;101338.84;;;32.49;21.94
13456;BME280;6800;50.940;6.940;2022-07-15T20:23:58;101343.88;;;32.32;22.33
13456;BME280;6800;50.940;6.940;2022-07-15T20:27:59;101340.16;;;32.20;22.59
13456;BME280;6800;50.940;6.940;2022-07-15T20:31:59;101338.06;;;32.22;22.69
13456;BME280;6800;50.940;6.940;2022-07-15T20:35:59;101327.28;;;32.09;22.71
13456;BME280;6800;50.940;6.940;2022-07-15T20:40:00;101334.59;;;31.95;22.47
13456;BME280;6800;50.940;6.940;2022-07-15T20:44:01;101337.69;;;31.86;23.05
13456;BME280;6800;50.940;6.940;2022-07-15T20:48:02;101337.09;;;31.64;23.05
13456;BME280;6800;50.940;6.940;2022-07-15T20:52:04;101341.22;;;31.60;23.47
13456;BME280;6800;50.940;6.940;2022-07-15T20:56:04;101335.03;;;31.66;23.88
13456;BME280;6800;50.940;6.940;2022-07-15T21:00:06;101336.88;;;31.66;23.46
13456;BME280;6800;50.940;6.940;2022-07-15T21:04:07;101337.28;;;31.56;23.44
13456;BME280;6800;50.940;6.940;2022-07-15T21:08:08;101331.69;;;31.51;23.81
13456;BME280;6800;50.940;6.940;2022-07-15T21:12:09;101340.41;;;31.46;23.75
13456;BME280;6800;50.940;6.940;2022-07-15T21:16:09;101328.75;;;31.39;24.11
13456;BME280;6800;50.940;6.940;2022-07-15T21:20:10;101325.63;;;31.36;24.03
13456;BME280;6800;50.940;6.940;2022-07-15T21:24:10;101325.41;;;31.24;24.46
13456;BME280;6800;50.940;6.940;2022-07-15T21:28:29;101330.16;;;31.16;24.61
13456;BME280;6800;50.940;6.940;2022-07-15T21:32:30;101329.13;;;31.10;24.48
13456;BME280;6800;50.940;6.940;2022-07-15T21:36:30;101334.53;;;31.10;24.45
13456;BME280;6800;50.940;6.940;2022-07-15T21:40:31;101339.06;;;31.03;24.84
13456;BME280;6800;50.940;6.940;2022-07-15T21:44:31;101338.88;;;30.98;24.59
13456;BME280;6800;50.940;6.940;2022-07-15T21:48:31;101347.16;;;30.97;24.78
13456;BME280;6800;50.940;6.940;2022-07-15T21:52:32;101339.88;;;30.91;24.76
13456;BME280;6800;50.940;6.940;2022-07-15T21:56:32;101346.06;;;30.84;25.13
13456;BME280;6800;50.940;6.940;2022-07-15T22:00:33;101351.84;;;30.75;25.07
13456;BME280;6800;50.940;6.940;2022-07-15T22:04:40;101353.69;;;30.74;24.97